Arlington, Arizona
Current Conditions -  °F | °C
As of 2:35 AM on Friday 24 Oct 2014 (Local Time) from KBXK Reporting Station
NA  
Wind Chill: 63°   Ceiling: NA
Heat Index: 63°   Visibility: 10mi
Dew Point: 43°   Wind: 5mph
Humidity: 48%   Direction: 10°N
Pressure: 29.99"   Gusts: NA
Location:  33.33°N, 112.77°W
Report Text: KBXK 240935Z AUTO 01004KT 10SM 17/06 A2999 RMK AO1
Loading
Personal Weather Stations






























Interactive Weather Map
Tropical Storm Tracking
New forecast layout! Learn more

10-Day Weather Forecast

Advertisements
Track Severe Weather on mobile